sensor_id;sensor_type;location;lat;lon;timestamp;pressure;altitude;pressure_sealevel;temperature;humidity
13209;BME280;6669;42.678;23.332;2023-07-13T00:01:08;94791.88;;;23.90;100.00
13209;BME280;6669;42.678;23.332;2023-07-13T00:03:36;94796.38;;;23.90;100.00
13209;BME280;6669;42.678;23.332;2023-07-13T00:06:04;94794.97;;;23.82;100.00
13209;BME280;6669;42.678;23.332;2023-07-13T00:08:32;94795.84;;;23.88;100.00
13209;BME280;6669;42.678;23.332;2023-07-13T00:11:01;94790.97;;;23.79;100.00
13209;BME280;6669;42.678;23.332;2023-07-13T00:13:29;94795.75;;;23.82;100.00
13209;BME280;6669;42.678;23.332;2023-07-13T00:15:57;94792.00;;;23.78;100.00
13209;BME280;6669;42.678;23.332;2023-07-13T00:18:27;94785.66;;;23.79;100.00
13209;BME280;6669;42.678;23.332;2023-07-13T00:20:57;94774.94;;;23.69;100.00
13209;BME280;6669;42.678;23.332;2023-07-13T00:23:31;94792.84;;;23.57;100.00
13209;BME280;6669;42.678;23.332;2023-07-13T00:26:00;94782.66;;;23.43;100.00
13209;BME280;6669;42.678;23.332;2023-07-13T00:28:29;94786.41;;;23.25;100.00
13209;BME280;6669;42.678;23.332;2023-07-13T00:30:56;94784.91;;;23.12;100.00
13209;BME280;6669;42.678;23.332;2023-07-13T00:33:25;94782.31;;;22.95;100.00
13209;BME280;6669;42.678;23.332;2023-07-13T00:35:55;94780.94;;;22.93;100.00
13209;BME280;6669;42.678;23.332;2023-07-13T00:38:24;94775.28;;;22.84;100.00
13209;BME280;6669;42.678;23.332;2023-07-13T00:40:52;94772.94;;;22.88;100.00
13209;BME280;6669;42.678;23.332;2023-07-13T00:43:22;94778.50;;;22.86;100.00
13209;BME280;6669;42.678;23.332;2023-07-13T00:46:14;94778.44;;;22.81;100.00
13209;BME280;6669;42.678;23.332;2023-07-13T00:48:43;94778.34;;;22.76;100.00
13209;BME280;6669;42.678;23.332;2023-07-13T00:51:16;94779.41;;;22.75;100.00
13209;BME280;6669;42.678;23.332;2023-07-13T00:53:45;94770.50;;;22.64;100.00
13209;BME280;6669;42.678;23.332;2023-07-13T00:56:13;94765.25;;;22.47;100.00
13209;BME280;6669;42.678;23.332;2023-07-13T00:58:42;94776.38;;;22.49;100.00
13209;BME280;6669;42.678;23.332;2023-07-13T01:01:10;94771.19;;;22.37;100.00
13209;BME280;6669;42.678;23.332;2023-07-13T01:03:39;94767.97;;;22.35;100.00
13209;BME280;6669;42.678;23.332;2023-07-13T01:08:38;94765.78;;;22.15;100.00
13209;BME280;6669;42.678;23.332;2023-07-13T01:11:06;94769.56;;;22.19;100.00
13209;BME280;6669;42.678;23.332;2023-07-13T01:13:35;94763.22;;;22.20;100.00
13209;BME280;6669;42.678;23.332;2023-07-13T01:16:09;94752.38;;;22.21;100.00
13209;BME280;6669;42.678;23.332;2023-07-13T01:18:40;94763.94;;;22.32;100.00
13209;BME280;6669;42.678;23.332;2023-07-13T01:21:09;94749.09;;;22.31;100.00
13209;BME280;6669;42.678;23.332;2023-07-13T01:23:37;94757.69;;;22.39;100.00
13209;BME280;6669;42.678;23.332;2023-07-13T01:26:05;94754.50;;;22.36;100.00
13209;BME280;6669;42.678;23.332;2023-07-13T01:28:33;94761.47;;;22.43;100.00
13209;BME280;6669;42.678;23.332;2023-07-13T01:31:03;94767.00;;;22.41;100.00
13209;BME280;6669;42.678;23.332;2023-07-13T01:33:32;94758.94;;;22.36;100.00
13209;BME280;6669;42.678;23.332;2023-07-13T01:36:01;94761.78;;;22.29;100.00
13209;BME280;6669;42.678;23.332;2023-07-13T01:38:30;94755.75;;;22.17;100.00
13209;BME280;6669;42.678;23.332;2023-07-13T01:40:58;94763.06;;;22.10;100.00
13209;BME280;6669;42.678;23.332;2023-07-13T01:43:26;94765.22;;;21.96;100.00
13209;BME280;6669;42.678;23.332;2023-07-13T01:45:54;94764.91;;;21.92;100.00
13209;BME280;6669;42.678;23.332;2023-07-13T01:48:42;94763.22;;;21.86;100.00
13209;BME280;6669;42.678;23.332;2023-07-13T01:51:10;94761.13;;;21.88;100.00
13209;BME280;6669;42.678;23.332;2023-07-13T01:53:40;94766.09;;;21.84;100.00
13209;BME280;6669;42.678;23.332;2023-07-13T01:56:08;94756.22;;;21.80;100.00
13209;BME280;6669;42.678;23.332;2023-07-13T01:58:37;94759.59;;;21.75;100.00
13209;BME280;6669;42.678;23.332;2023-07-13T02:01:05;94767.22;;;21.71;100.00
13209;BME280;6669;42.678;23.332;2023-07-13T02:03:33;94762.03;;;21.65;100.00
13209;BME280;6669;42.678;23.332;2023-07-13T02:06:01;94769.59;;;21.56;100.00
13209;BME280;6669;42.678;23.332;2023-07-13T02:08:30;94769.97;;;21.65;100.00
13209;BME280;6669;42.678;23.332;2023-07-13T02:10:59;94767.28;;;21.48;100.00
13209;BME280;6669;42.678;23.332;2023-07-13T02:13:27;94775.22;;;21.48;100.00
13209;BME280;6669;42.678;23.332;2023-07-13T02:15:56;94770.06;;;21.41;100.00
13209;BME280;6669;42.678;23.332;2023-07-13T02:18:24;94774.88;;;21.44;100.00
13209;BME280;6669;42.678;23.332;2023-07-13T02:20:52;94770.53;;;21.38;100.00
13209;BME280;6669;42.678;23.332;2023-07-13T02:23:20;94768.03;;;21.31;100.00
13209;BME280;6669;42.678;23.332;2023-07-13T02:25:48;94774.78;;;21.39;100.00
13209;BME280;6669;42.678;23.332;2023-07-13T02:28:17;94782.56;;;21.46;100.00
13209;BME280;6669;42.678;23.332;2023-07-13T02:30:45;94777.53;;;21.44;100.00
13209;BME280;6669;42.678;23.332;2023-07-13T02:33:13;94776.50;;;21.45;100.00
13209;BME280;6669;42.678;23.332;2023-07-13T02:35:41;94780.16;;;21.56;100.00
13209;BME280;6669;42.678;23.332;2023-07-13T02:38:09;94776.59;;;21.50;100.00
13209;BME280;6669;42.678;23.332;2023-07-13T02:40:37;94769.59;;;21.44;100.00
13209;BME280;6669;42.678;23.332;2023-07-13T02:43:05;94779.28;;;21.38;100.00
13209;BME280;6669;42.678;23.332;2023-07-13T02:45:35;94773.91;;;21.21;100.00
13209;BME280;6669;42.678;23.332;2023-07-13T02:48:03;94779.09;;;21.16;100.00
13209;BME280;6669;42.678;23.332;2023-07-13T02:50:31;94776.59;;;21.10;100.00
13209;BME280;6669;42.678;23.332;2023-07-13T02:52:59;94778.22;;;21.11;100.00
13209;BME280;6669;42.678;23.332;2023-07-13T02:55:27;94778.56;;;21.14;100.00
13209;BME280;6669;42.678;23.332;2023-07-13T02:57:55;94780.63;;;21.12;100.00
13209;BME280;6669;42.678;23.332;2023-07-13T03:00:23;94782.28;;;21.01;100.00
13209;BME280;6669;42.678;23.332;2023-07-13T03:02:53;94783.53;;;20.99;100.00
13209;BME280;6669;42.678;23.332;2023-07-13T03:05:24;94786.88;;;20.94;100.00
13209;BME280;6669;42.678;23.332;2023-07-13T03:07:52;94782.03;;;20.91;100.00
13209;BME280;6669;42.678;23.332;2023-07-13T03:10:20;94784.91;;;20.89;100.00
13209;BME280;6669;42.678;23.332;2023-07-13T03:12:48;94798.16;;;20.78;100.00
13209;BME280;6669;42.678;23.332;2023-07-13T03:15:16;94788.63;;;20.77;100.00
13209;BME280;6669;42.678;23.332;2023-07-13T03:17:44;94791.25;;;20.77;100.00
13209;BME280;6669;42.678;23.332;2023-07-13T03:20:14;94795.50;;;20.66;100.00
13209;BME280;6669;42.678;23.332;2023-07-13T03:22:42;94789.63;;;20.64;100.00
13209;BME280;6669;42.678;23.332;2023-07-13T03:25:10;94796.06;;;20.56;100.00
13209;BME280;6669;42.678;23.332;2023-07-13T03:27:38;94800.19;;;20.64;100.00
13209;BME280;6669;42.678;23.332;2023-07-13T03:30:07;94794.22;;;20.56;100.00
13209;BME280;6669;42.678;23.332;2023-07-13T03:32:35;94791.03;;;20.54;100.00
13209;BME280;6669;42.678;23.332;2023-07-13T03:35:04;94806.16;;;20.59;100.00
13209;BME280;6669;42.678;23.332;2023-07-13T03:37:34;94798.59;;;20.51;100.00
13209;BME280;6669;42.678;23.332;2023-07-13T03:40:04;94806.28;;;20.52;100.00
13209;BME280;6669;42.678;23.332;2023-07-13T03:42:35;94794.69;;;20.41;100.00
13209;BME280;6669;42.678;23.332;2023-07-13T03:45:04;94804.78;;;20.56;100.00
13209;BME280;6669;42.678;23.332;2023-07-13T03:47:32;94802.25;;;20.62;100.00
13209;BME280;6669;42.678;23.332;2023-07-13T03:50:00;94792.94;;;20.59;100.00
13209;BME280;6669;42.678;23.332;2023-07-13T03:52:29;94798.03;;;20.61;100.00
13209;BME280;6669;42.678;23.332;2023-07-13T03:54:58;94803.41;;;20.66;100.00
13209;BME280;6669;42.678;23.332;2023-07-13T03:57:26;94806.50;;;20.63;100.00
13209;BME280;6669;42.678;23.332;2023-07-13T03:59:54;94797.47;;;20.70;100.00
13209;BME280;6669;42.678;23.332;2023-07-13T04:02:22;94797.91;;;20.79;100.00
13209;BME280;6669;42.678;23.332;2023-07-13T04:04:50;94800.66;;;20.84;100.00
13209;BME280;6669;42.678;23.332;2023-07-13T04:07:20;94795.25;;;20.91;100.00
13209;BME280;6669;42.678;23.332;2023-07-13T04:09:48;94787.56;;;20.89;100.00
13209;BME280;6669;42.678;23.332;2023-07-13T04:12:18;94791.47;;;20.99;100.00
13209;BME280;6669;42.678;23.332;2023-07-13T04:14:46;94789.47;;;21.06;100.00
13209;BME280;6669;42.678;23.332;2023-07-13T04:17:14;94795.78;;;21.05;100.00
13209;BME280;6669;42.678;23.332;2023-07-13T04:19:42;94793.16;;;21.05;100.00
13209;BME280;6669;42.678;23.332;2023-07-13T04:22:10;94796.13;;;21.20;100.00
13209;BME280;6669;42.678;23.332;2023-07-13T04:24:38;94793.97;;;21.05;100.00
13209;BME280;6669;42.678;23.332;2023-07-13T04:27:06;94802.34;;;21.14;100.00
13209;BME280;6669;42.678;23.332;2023-07-13T04:29:35;94815.66;;;21.19;100.00
13209;BME280;6669;42.678;23.332;2023-07-13T04:32:04;94819.53;;;21.29;100.00
13209;BME280;6669;42.678;23.332;2023-07-13T04:34:32;94806.22;;;21.23;100.00
13209;BME280;6669;42.678;23.332;2023-07-13T04:37:01;94821.34;;;21.40;100.00
13209;BME280;6669;42.678;23.332;2023-07-13T04:39:29;94811.44;;;21.47;100.00
13209;BME280;6669;42.678;23.332;2023-07-13T04:41:57;94810.06;;;21.57;100.00
13209;BME280;6669;42.678;23.332;2023-07-13T04:44:25;94817.59;;;21.65;100.00
13209;BME280;6669;42.678;23.332;2023-07-13T04:46:54;94814.50;;;21.68;100.00
13209;BME280;6669;42.678;23.332;2023-07-13T04:49:22;94821.81;;;21.78;100.00
13209;BME280;6669;42.678;23.332;2023-07-13T04:51:50;94822.38;;;21.80;100.00
13209;BME280;6669;42.678;23.332;2023-07-13T04:54:18;94825.59;;;21.82;100.00
13209;BME280;6669;42.678;23.332;2023-07-13T04:56:46;94822.13;;;21.81;100.00
13209;BME280;6669;42.678;23.332;2023-07-13T04:59:14;94834.03;;;21.96;100.00
13209;BME280;6669;42.678;23.332;2023-07-13T05:01:42;94836.69;;;21.96;100.00
13209;BME280;6669;42.678;23.332;2023-07-13T05:04:11;94836.78;;;22.01;100.00
13209;BME280;6669;42.678;23.332;2023-07-13T05:06:39;94830.44;;;22.02;100.00
13209;BME280;6669;42.678;23.332;2023-07-13T05:09:07;94833.25;;;22.12;100.00
13209;BME280;6669;42.678;23.332;2023-07-13T05:11:35;94825.41;;;22.17;100.00
13209;BME280;6669;42.678;23.332;2023-07-13T05:14:03;94834.72;;;22.20;100.00
13209;BME280;6669;42.678;23.332;2023-07-13T05:16:31;94844.19;;;22.33;100.00
13209;BME280;6669;42.678;23.332;2023-07-13T05:19:00;94843.81;;;22.41;100.00
13209;BME280;6669;42.678;23.332;2023-07-13T05:21:30;94837.06;;;22.50;100.00
13209;BME280;6669;42.678;23.332;2023-07-13T05:23:58;94834.66;;;22.66;100.00
13209;BME280;6669;42.678;23.332;2023-07-13T05:26:36;94847.72;;;22.73;100.00
13209;BME280;6669;42.678;23.332;2023-07-13T05:29:04;94844.09;;;22.79;100.00
13209;BME280;6669;42.678;23.332;2023-07-13T05:31:32;94844.97;;;22.84;100.00
13209;BME280;6669;42.678;23.332;2023-07-13T05:34:00;94847.78;;;22.95;100.00
13209;BME280;6669;42.678;23.332;2023-07-13T05:36:28;94850.56;;;23.05;100.00
13209;BME280;6669;42.678;23.332;2023-07-13T05:38:57;94846.22;;;23.16;100.00
13209;BME280;6669;42.678;23.332;2023-07-13T05:41:25;94845.19;;;23.17;100.00
13209;BME280;6669;42.678;23.332;2023-07-13T05:43:53;94858.56;;;23.27;100.00
13209;BME280;6669;42.678;23.332;2023-07-13T05:46:21;94851.78;;;23.37;100.00
13209;BME280;6669;42.678;23.332;2023-07-13T05:48:49;94848.97;;;23.43;100.00
13209;BME280;6669;42.678;23.332;2023-07-13T05:51:17;94856.28;;;23.58;100.00
13209;BME280;6669;42.678;23.332;2023-07-13T05:53:47;94853.47;;;23.65;100.00
13209;BME280;6669;42.678;23.332;2023-07-13T05:56:17;94847.75;;;23.78;100.00
13209;BME280;6669;42.678;23.332;2023-07-13T05:58:45;94849.97;;;23.87;100.00
13209;BME280;6669;42.678;23.332;2023-07-13T06:01:14;94838.13;;;23.94;100.00
13209;BME280;6669;42.678;23.332;2023-07-13T06:03:43;94840.91;;;24.10;100.00
13209;BME280;6669;42.678;23.332;2023-07-13T06:06:11;94831.94;;;24.16;100.00
13209;BME280;6669;42.678;23.332;2023-07-13T06:08:39;94838.94;;;24.27;100.00
13209;BME280;6669;42.678;23.332;2023-07-13T06:11:12;94837.44;;;24.37;100.00
13209;BME280;6669;42.678;23.332;2023-07-13T06:13:43;94851.06;;;24.45;100.00
13209;BME280;6669;42.678;23.332;2023-07-13T06:16:11;94846.34;;;24.53;100.00
13209;BME280;6669;42.678;23.332;2023-07-13T06:18:40;94852.50;;;24.63;100.00
13209;BME280;6669;42.678;23.332;2023-07-13T06:21:09;94846.78;;;24.77;100.00
13209;BME280;6669;42.678;23.332;2023-07-13T06:23:38;94855.53;;;24.72;100.00
13209;BME280;6669;42.678;23.332;2023-07-13T06:26:07;94852.38;;;24.80;100.00
13209;BME280;6669;42.678;23.332;2023-07-13T06:28:36;94848.41;;;24.83;100.00
13209;BME280;6669;42.678;23.332;2023-07-13T06:31:07;94854.00;;;24.87;100.00
13209;BME280;6669;42.678;23.332;2023-07-13T06:33:37;94858.03;;;24.89;100.00
13209;BME280;6669;42.678;23.332;2023-07-13T06:36:06;94850.88;;;24.90;100.00
13209;BME280;6669;42.678;23.332;2023-07-13T06:38:34;94849.31;;;24.99;100.00
13209;BME280;6669;42.678;23.332;2023-07-13T06:41:04;94843.03;;;25.16;100.00
13209;BME280;6669;42.678;23.332;2023-07-13T06:43:32;94844.09;;;25.20;100.00
13209;BME280;6669;42.678;23.332;2023-07-13T06:46:00;94842.59;;;25.34;100.00
13209;BME280;6669;42.678;23.332;2023-07-13T06:48:29;94845.81;;;25.41;100.00
13209;BME280;6669;42.678;23.332;2023-07-13T06:50:57;94847.72;;;25.51;100.00
13209;BME280;6669;42.678;23.332;2023-07-13T06:53:25;94840.47;;;25.36;100.00
13209;BME280;6669;42.678;23.332;2023-07-13T06:55:53;94846.66;;;25.52;100.00
13209;BME280;6669;42.678;23.332;2023-07-13T06:58:22;94840.06;;;25.65;100.00
13209;BME280;6669;42.678;23.332;2023-07-13T07:00:51;94841.41;;;25.78;100.00
13209;BME280;6669;42.678;23.332;2023-07-13T07:03:20;94843.03;;;25.79;100.00
13209;BME280;6669;42.678;23.332;2023-07-13T07:05:49;94847.81;;;25.82;100.00
13209;BME280;6669;42.678;23.332;2023-07-13T07:08:18;94840.94;;;25.91;100.00
13209;BME280;6669;42.678;23.332;2023-07-13T07:10:46;94839.34;;;25.95;100.00
13209;BME280;6669;42.678;23.332;2023-07-13T07:13:18;94845.25;;;26.13;100.00
13209;BME280;6669;42.678;23.332;2023-07-13T07:15:46;94839.13;;;26.28;100.00
13209;BME280;6669;42.678;23.332;2023-07-13T07:18:14;94838.31;;;26.27;100.00
13209;BME280;6669;42.678;23.332;2023-07-13T07:20:42;94835.38;;;26.44;100.00
13209;BME280;6669;42.678;23.332;2023-07-13T07:23:11;94836.47;;;26.49;100.00
13209;BME280;6669;42.678;23.332;2023-07-13T07:25:39;94833.25;;;26.67;100.00
13209;BME280;6669;42.678;23.332;2023-07-13T08:37:53;94780.34;;;29.28;100.00
13209;BME280;6669;42.678;23.332;2023-07-13T08:40:24;94769.25;;;29.40;100.00
13209;BME280;6669;42.678;23.332;2023-07-13T08:42:55;94771.50;;;29.52;100.00
13209;BME280;6669;42.678;23.332;2023-07-13T08:45:29;94760.72;;;29.57;100.00
13209;BME280;6669;42.678;23.332;2023-07-13T11:56:37;94654.91;;;37.45;48.61
13209;BME280;6669;42.678;23.332;2023-07-13T11:59:07;94648.84;;;37.24;48.34
13209;BME280;6669;42.678;23.332;2023-07-13T12:01:43;94635.00;;;37.01;48.88
13209;BME280;6669;42.678;23.332;2023-07-13T12:04:20;94641.66;;;37.03;48.17
13209;BME280;6669;42.678;23.332;2023-07-13T12:06:55;94631.19;;;36.89;47.32
13209;BME280;6669;42.678;23.332;2023-07-13T12:09:23;94636.59;;;36.89;46.06
13209;BME280;6669;42.678;23.332;2023-07-13T12:11:57;94636.13;;;37.00;47.64
13209;BME280;6669;42.678;23.332;2023-07-13T12:14:27;94624.50;;;36.99;47.47
13209;BME280;6669;42.678;23.332;2023-07-13T12:16:55;94635.53;;;37.19;44.96
13209;BME280;6669;42.678;23.332;2023-07-13T12:19:26;94616.53;;;37.31;44.94
13209;BME280;6669;42.678;23.332;2023-07-13T12:21:56;94620.22;;;37.51;45.84
13209;BME280;6669;42.678;23.332;2023-07-13T12:24:28;94627.84;;;37.21;44.70
13209;BME280;6669;42.678;23.332;2023-07-13T12:27:01;94585.50;;;37.16;45.33
13209;BME280;6669;42.678;23.332;2023-07-13T12:29:32;94601.53;;;37.62;44.48
13209;BME280;6669;42.678;23.332;2023-07-13T12:32:00;94594.00;;;37.55;45.21
13209;BME280;6669;42.678;23.332;2023-07-13T12:34:28;94594.19;;;37.34;45.12
13209;BME280;6669;42.678;23.332;2023-07-13T12:37:00;94586.28;;;37.17;44.24
13209;BME280;6669;42.678;23.332;2023-07-13T12:39:33;94582.25;;;37.51;45.19
13209;BME280;6669;42.678;23.332;2023-07-13T12:42:19;94581.75;;;37.90;44.89
13209;BME280;6669;42.678;23.332;2023-07-13T12:44:52;94588.50;;;37.96;45.19
13209;BME280;6669;42.678;23.332;2023-07-13T12:47:21;94580.00;;;38.14;44.81
13209;BME280;6669;42.678;23.332;2023-07-13T12:49:50;94570.28;;;37.97;43.80
13209;BME280;6669;42.678;23.332;2023-07-13T13:12:19;94555.03;;;39.89;42.58
13209;BME280;6669;42.678;23.332;2023-07-13T13:14:47;94557.69;;;39.86;42.57
13209;BME280;6669;42.678;23.332;2023-07-13T13:17:19;94555.13;;;39.31;42.63
13209;BME280;6669;42.678;23.332;2023-07-13T13:19:48;94568.47;;;39.20;43.47
13209;BME280;6669;42.678;23.332;2023-07-13T13:22:16;94549.28;;;39.52;43.92
13209;BME280;6669;42.678;23.332;2023-07-13T13:24:44;94558.59;;;39.31;44.48
13209;BME280;6669;42.678;23.332;2023-07-13T13:27:15;94558.53;;;39.28;45.14
13209;BME280;6669;42.678;23.332;2023-07-13T13:29:46;94542.63;;;39.10;44.08
13209;BME280;6669;42.678;23.332;2023-07-13T13:32:17;94550.56;;;39.19;42.81
13209;BME280;6669;42.678;23.332;2023-07-13T13:34:45;94547.16;;;39.42;42.47
13209;BME280;6669;42.678;23.332;2023-07-13T13:37:17;94547.44;;;39.36;42.40
13209;BME280;6669;42.678;23.332;2023-07-13T13:39:47;94546.88;;;39.27;42.68
13209;BME280;6669;42.678;23.332;2023-07-13T13:42:34;94537.16;;;39.26;43.41
13209;BME280;6669;42.678;23.332;2023-07-13T13:45:04;94535.91;;;39.63;41.23
13209;BME280;6669;42.678;23.332;2023-07-13T13:47:33;94541.06;;;39.68;41.61
13209;BME280;6669;42.678;23.332;2023-07-13T13:50:11;94531.59;;;39.62;40.27
13209;BME280;6669;42.678;23.332;2023-07-13T13:52:41;94542.50;;;39.85;41.29
13209;BME280;6669;42.678;23.332;2023-07-13T13:55:13;94541.44;;;39.66;40.97
13209;BME280;6669;42.678;23.332;2023-07-13T13:57:42;94538.53;;;39.79;42.44
13209;BME280;6669;42.678;23.332;2023-07-13T14:00:12;94531.69;;;39.46;40.36
13209;BME280;6669;42.678;23.332;2023-07-13T14:02:42;94531.75;;;39.10;40.95
13209;BME280;6669;42.678;23.332;2023-07-13T14:05:15;94527.44;;;38.89;40.55
13209;BME280;6669;42.678;23.332;2023-07-13T14:07:46;94526.38;;;39.14;41.73
13209;BME280;6669;42.678;23.332;2023-07-13T14:10:15;94522.44;;;39.11;42.45
13209;BME280;6669;42.678;23.332;2023-07-13T14:12:45;94527.69;;;39.00;41.90
13209;BME280;6669;42.678;23.332;2023-07-13T14:15:20;94519.25;;;39.25;42.12
13209;BME280;6669;42.678;23.332;2023-07-13T14:17:48;94520.69;;;39.38;42.20
13209;BME280;6669;42.678;23.332;2023-07-13T14:20:18;94533.31;;;39.50;42.48
13209;BME280;6669;42.678;23.332;2023-07-13T14:22:46;94521.75;;;39.14;42.09
13209;BME280;6669;42.678;23.332;2023-07-13T14:25:16;94515.41;;;39.26;41.63
13209;BME280;6669;42.678;23.332;2023-07-13T14:27:45;94528.75;;;39.74;41.88
13209;BME280;6669;42.678;23.332;2023-07-13T14:30:18;94514.75;;;39.33;40.93
13209;BME280;6669;42.678;23.332;2023-07-13T14:32:46;94518.31;;;39.80;41.67
13209;BME280;6669;42.678;23.332;2023-07-13T14:35:18;94512.59;;;39.85;41.76
13209;BME280;6669;42.678;23.332;2023-07-13T14:37:47;94513.31;;;39.82;41.64
13209;BME280;6669;42.678;23.332;2023-07-13T14:40:16;94518.38;;;39.60;41.78
13209;BME280;6669;42.678;23.332;2023-07-13T14:42:45;94516.50;;;39.64;42.96
13209;BME280;6669;42.678;23.332;2023-07-13T14:45:14;94511.56;;;39.93;42.88
13209;BME280;6669;42.678;23.332;2023-07-13T14:47:44;94517.31;;;39.88;42.32
13209;BME280;6669;42.678;23.332;2023-07-13T14:50:15;94511.13;;;39.68;42.53
13209;BME280;6669;42.678;23.332;2023-07-13T14:52:44;94512.91;;;39.60;42.42
13209;BME280;6669;42.678;23.332;2023-07-13T14:55:15;94507.16;;;39.03;43.06
13209;BME280;6669;42.678;23.332;2023-07-13T14:57:43;94498.63;;;39.44;43.13
13209;BME280;6669;42.678;23.332;2023-07-13T15:00:13;94510.34;;;39.48;42.35
13209;BME280;6669;42.678;23.332;2023-07-13T15:02:46;94497.22;;;39.30;43.39
13209;BME280;6669;42.678;23.332;2023-07-13T15:05:17;94508.94;;;39.15;44.32
13209;BME280;6669;42.678;23.332;2023-07-13T15:07:46;94509.09;;;39.42;43.25
13209;BME280;6669;42.678;23.332;2023-07-13T15:10:16;94512.91;;;39.60;42.98
13209;BME280;6669;42.678;23.332;2023-07-13T15:12:45;94511.56;;;39.50;44.38
13209;BME280;6669;42.678;23.332;2023-07-13T15:15:13;94499.81;;;39.66;43.35
13209;BME280;6669;42.678;23.332;2023-07-13T15:17:45;94504.34;;;39.19;44.68
13209;BME280;6669;42.678;23.332;2023-07-13T15:20:27;94504.44;;;39.42;44.78
13209;BME280;6669;42.678;23.332;2023-07-13T15:22:59;94527.19;;;39.14;44.63
13209;BME280;6669;42.678;23.332;2023-07-13T15:25:29;94511.22;;;39.13;44.94
13209;BME280;6669;42.678;23.332;2023-07-13T15:28:00;94505.66;;;39.05;44.44
13209;BME280;6669;42.678;23.332;2023-07-13T15:30:30;94508.38;;;39.25;45.21
13209;BME280;6669;42.678;23.332;2023-07-13T15:33:09;94512.03;;;39.33;43.90
13209;BME280;6669;42.678;23.332;2023-07-13T15:35:38;94504.44;;;39.22;43.97
13209;BME280;6669;42.678;23.332;2023-07-13T15:38:13;94499.03;;;39.46;44.69
13209;BME280;6669;42.678;23.332;2023-07-13T15:40:42;94507.41;;;39.56;44.48
13209;BME280;6669;42.678;23.332;2023-07-13T15:43:12;94503.03;;;39.71;44.13
13209;BME280;6669;42.678;23.332;2023-07-13T15:45:41;94502.59;;;39.69;43.96
13209;BME280;6669;42.678;23.332;2023-07-13T15:48:15;94491.88;;;39.57;44.39
13209;BME280;6669;42.678;23.332;2023-07-13T15:50:46;94502.06;;;39.40;43.81
13209;BME280;6669;42.678;23.332;2023-07-13T15:53:19;94499.19;;;39.14;45.11
13209;BME280;6669;42.678;23.332;2023-07-13T15:55:47;94486.22;;;39.23;45.59
13209;BME280;6669;42.678;23.332;2023-07-13T15:58:16;94497.50;;;39.05;45.18
13209;BME280;6669;42.678;23.332;2023-07-13T16:00:44;94502.19;;;39.48;44.89
13209;BME280;6669;42.678;23.332;2023-07-13T16:03:14;94504.63;;;39.53;45.69
13209;BME280;6669;42.678;23.332;2023-07-13T16:05:42;94501.44;;;39.47;44.70
13209;BME280;6669;42.678;23.332;2023-07-13T16:08:22;94504.38;;;39.38;45.92
13209;BME280;6669;42.678;23.332;2023-07-13T16:10:50;94505.38;;;39.11;45.10
13209;BME280;6669;42.678;23.332;2023-07-13T16:13:20;94494.03;;;39.24;45.55
13209;BME280;6669;42.678;23.332;2023-07-13T16:15:48;94494.47;;;38.91;45.46
13209;BME280;6669;42.678;23.332;2023-07-13T16:18:18;94489.66;;;39.20;45.53
13209;BME280;6669;42.678;23.332;2023-07-13T16:20:47;94490.78;;;39.38;45.61
13209;BME280;6669;42.678;23.332;2023-07-13T16:23:17;94488.97;;;39.46;45.49
13209;BME280;6669;42.678;23.332;2023-07-13T16:25:45;94489.06;;;39.11;46.04
13209;BME280;6669;42.678;23.332;2023-07-13T16:28:15;94488.66;;;39.28;46.15
13209;BME280;6669;42.678;23.332;2023-07-13T16:30:43;94484.66;;;39.22;46.42
13209;BME280;6669;42.678;23.332;2023-07-13T16:33:11;94488.75;;;39.35;46.68
13209;BME280;6669;42.678;23.332;2023-07-13T16:35:41;94484.22;;;39.20;45.99
13209;BME280;6669;42.678;23.332;2023-07-13T16:38:15;94482.25;;;39.01;47.08
13209;BME280;6669;42.678;23.332;2023-07-13T16:40:44;94489.97;;;39.18;47.41
13209;BME280;6669;42.678;23.332;2023-07-13T16:43:15;94494.56;;;38.59;47.94
13209;BME280;6669;42.678;23.332;2023-07-13T16:45:48;94487.53;;;38.38;48.83
13209;BME280;6669;42.678;23.332;2023-07-13T16:48:21;94488.94;;;38.48;49.15
13209;BME280;6669;42.678;23.332;2023-07-13T16:50:54;94495.41;;;38.43;48.83
13209;BME280;6669;42.678;23.332;2023-07-13T16:53:24;94483.53;;;38.16;48.84
13209;BME280;6669;42.678;23.332;2023-07-13T16:55:53;94494.84;;;38.02;49.07
13209;BME280;6669;42.678;23.332;2023-07-13T16:58:29;94490.91;;;38.00;49.96
13209;BME280;6669;42.678;23.332;2023-07-13T17:00:59;94491.22;;;37.66;50.44
13209;BME280;6669;42.678;23.332;2023-07-13T17:03:30;94491.31;;;37.54;50.60
13209;BME280;6669;42.678;23.332;2023-07-13T17:06:02;94495.16;;;37.53;51.56
13209;BME280;6669;42.678;23.332;2023-07-13T17:08:39;94485.19;;;37.28;51.00
13209;BME280;6669;42.678;23.332;2023-07-13T17:11:07;94494.72;;;37.22;51.80
13209;BME280;6669;42.678;23.332;2023-07-13T17:13:35;94495.84;;;37.21;51.63
13209;BME280;6669;42.678;23.332;2023-07-13T17:16:05;94495.75;;;37.18;51.00
13209;BME280;6669;42.678;23.332;2023-07-13T17:18:36;94486.88;;;37.05;51.94
13209;BME280;6669;42.678;23.332;2023-07-13T17:21:09;94493.72;;;37.14;52.29
13209;BME280;6669;42.678;23.332;2023-07-13T17:23:40;94495.19;;;36.84;52.43
13209;BME280;6669;42.678;23.332;2023-07-13T17:26:09;94503.69;;;36.57;54.18
13209;BME280;6669;42.678;23.332;2023-07-13T17:28:37;94496.16;;;36.26;54.71
13209;BME280;6669;42.678;23.332;2023-07-13T17:31:12;94494.91;;;36.11;54.57
13209;BME280;6669;42.678;23.332;2023-07-13T17:33:45;94485.53;;;35.83;55.75
13209;BME280;6669;42.678;23.332;2023-07-13T17:36:15;94495.09;;;35.35;56.96
13209;BME280;6669;42.678;23.332;2023-07-13T17:38:45;94495.69;;;35.07;57.78
13209;BME280;6669;42.678;23.332;2023-07-13T17:41:18;94488.38;;;34.44;59.77
13209;BME280;6669;42.678;23.332;2023-07-13T17:43:46;94494.94;;;34.34;60.84
13209;BME280;6669;42.678;23.332;2023-07-13T17:46:16;94503.28;;;34.12;58.97
13209;BME280;6669;42.678;23.332;2023-07-13T17:48:46;94500.47;;;33.99;59.15